createdAt,value
2023-02-11T00:03:29.919Z,15.90
2023-02-11T00:08:32.851Z,17.00
2023-02-11T00:13:35.649Z,16.50
2023-02-11T00:18:39.458Z,15.50
2023-02-11T00:23:45.045Z,15.80
2023-02-11T00:28:49.983Z,9.00
2023-02-11T00:33:53.459Z,8.60
2023-02-11T00:38:57.987Z,13.60
2023-02-11T00:44:02.917Z,16.40
2023-02-11T00:49:06.256Z,15.90
2023-02-11T00:54:09.082Z,10.30
2023-02-11T00:59:11.926Z,13.30
2023-02-11T01:04:14.679Z,16.00
2023-02-11T01:09:17.645Z,16.30
2023-02-11T01:14:20.506Z,13.60
2023-02-11T01:19:23.397Z,14.60
2023-02-11T01:24:26.316Z,15.90
2023-02-11T01:29:29.111Z,18.10
2023-02-11T01:34:33.271Z,17.10
2023-02-11T01:39:36.070Z,14.60
2023-02-11T01:44:40.261Z,17.00
2023-02-11T01:50:04.749Z,15.60
2023-02-11T01:55:31.888Z,16.20
2023-02-11T02:00:39.064Z,11.20
2023-02-11T02:05:54.281Z,11.30
2023-02-11T02:11:00.607Z,17.30
2023-02-11T02:16:12.187Z,14.60
2023-02-11T02:21:52.313Z,18.10
2023-02-11T02:27:34.948Z,18.30
2023-02-11T02:33:23.441Z,16.80
2023-02-11T02:38:36.667Z,15.00
2023-02-11T02:43:51.842Z,18.70
2023-02-11T02:48:59.032Z,17.70
2023-02-11T02:54:43.493Z,16.20
2023-02-11T03:00:32.295Z,16.20
2023-02-11T03:05:50.018Z,16.10
2023-02-11T03:10:55.656Z,17.70
2023-02-11T03:16:02.415Z,17.00
2023-02-11T03:21:16.302Z,16.20
2023-02-11T03:27:08.646Z,15.00
2023-02-11T03:32:22.301Z,16.80
2023-02-11T03:37:51.110Z,15.50
2023-02-11T03:43:03.125Z,15.50
2023-02-11T03:48:17.038Z,12.50
2023-02-11T03:53:22.250Z,15.80
2023-02-11T03:58:25.109Z,15.10
2023-02-11T04:03:28.201Z,14.60
2023-02-11T04:08:32.312Z,14.80
2023-02-11T04:13:35.126Z,15.10
2023-02-11T04:18:37.955Z,13.70
2023-02-11T04:23:40.776Z,15.10
2023-02-11T04:28:43.643Z,15.50
2023-02-11T04:33:46.832Z,13.10
2023-02-11T04:38:49.963Z,14.30
2023-02-11T04:43:52.781Z,14.40
2023-02-11T04:48:56.615Z,13.50
2023-02-11T04:53:59.381Z,14.50
2023-02-11T04:59:02.348Z,15.30
2023-02-11T05:04:05.326Z,15.40
2023-02-11T05:09:08.357Z,17.60
2023-02-11T05:14:11.191Z,13.90
2023-02-11T05:19:14.363Z,14.10
2023-02-11T05:24:17.189Z,15.60
2023-02-11T05:29:20.383Z,16.50
2023-02-11T05:34:23.196Z,14.00
2023-02-11T05:39:25.967Z,15.70
2023-02-11T05:44:28.831Z,16.10
2023-02-11T05:49:31.819Z,17.20
2023-02-11T05:54:34.646Z,13.90
2023-02-11T05:59:37.578Z,16.90
2023-02-11T06:04:40.426Z,16.70
2023-02-11T06:09:43.291Z,17.20
2023-02-11T06:14:46.080Z,14.50
2023-02-11T06:19:49.639Z,17.80
2023-02-11T06:25:01.264Z,18.20
2023-02-11T06:30:06.622Z,18.20
2023-02-11T06:35:11.906Z,18.30
2023-02-11T06:40:15.702Z,18.90
2023-02-11T06:45:20.706Z,20.50
2023-02-11T06:50:23.625Z,19.30
2023-02-11T06:55:26.973Z,17.40
2023-02-11T07:00:29.858Z,22.20
2023-02-11T07:05:34.379Z,18.90
2023-02-11T07:10:37.379Z,18.50
2023-02-11T07:15:40.313Z,15.50
2023-02-11T07:20:44.705Z,20.90
2023-02-11T07:25:47.596Z,20.80
2023-02-11T07:30:50.778Z,21.50
2023-02-11T07:35:53.712Z,19.00
2023-02-11T07:41:00.925Z,20.20
2023-02-11T07:46:17.189Z,15.30
2023-02-11T07:51:24.191Z,16.80
2023-02-11T07:56:28.528Z,19.00
2023-02-11T08:01:31.889Z,21.20
2023-02-11T08:06:35.827Z,17.30
2023-02-11T08:11:38.769Z,17.40
2023-02-11T08:16:41.941Z,19.80
2023-02-11T08:21:45.041Z,19.80
2023-02-11T08:26:47.879Z,18.00
2023-02-11T08:31:51.713Z,18.20
2023-02-11T08:36:54.549Z,18.20
2023-02-11T08:41:58.029Z,15.00
2023-02-11T08:47:00.833Z,18.40
2023-02-11T08:52:04.361Z,17.90
2023-02-11T08:57:07.196Z,17.00
2023-02-11T09:02:15.775Z,14.30
2023-02-11T09:07:18.566Z,16.70
2023-02-11T09:12:21.393Z,16.50
2023-02-11T09:17:24.250Z,17.80
2023-02-11T09:22:27.293Z,16.60
2023-02-11T09:27:30.197Z,15.80
2023-02-11T09:32:34.868Z,15.00
2023-02-11T09:37:37.674Z,14.20
2023-02-11T09:43:06.975Z,14.40
2023-02-11T09:48:17.285Z,13.10
2023-02-11T09:53:35.641Z,16.40
2023-02-11T09:58:44.722Z,13.20
2023-02-11T10:04:19.569Z,15.90
2023-02-11T10:09:34.446Z,16.40
2023-02-11T10:14:43.009Z,14.20
2023-02-11T10:20:03.350Z,14.80
2023-02-11T10:25:38.196Z,14.70
2023-02-11T10:30:56.035Z,12.70
2023-02-11T10:35:59.631Z,13.00
2023-02-11T10:41:02.458Z,12.30
2023-02-11T10:46:06.131Z,9.00
2023-02-11T10:51:29.496Z,12.20
2023-02-11T10:56:37.467Z,12.20
2023-02-11T11:01:46.464Z,20.50
2023-02-11T11:06:49.389Z,13.40
2023-02-11T11:11:56.054Z,7.30
2023-02-11T11:16:58.889Z,12.80
2023-02-11T11:22:01.876Z,12.10
2023-02-11T11:27:06.416Z,12.30
2023-02-11T11:32:20.745Z,10.40
2023-02-11T11:37:36.357Z,10.60
2023-02-11T11:42:42.374Z,11.70
2023-02-11T11:48:00.690Z,11.70
2023-02-11T11:53:36.045Z,12.70
2023-02-11T11:58:38.881Z,11.20
2023-02-11T12:04:41.679Z,7.90
2023-02-11T12:10:17.084Z,12.70
2023-02-11T12:15:44.069Z,12.10
2023-02-11T12:21:17.578Z,11.90
2023-02-11T12:26:28.534Z,11.30
2023-02-11T12:31:59.926Z,11.40
2023-02-11T12:37:29.958Z,10.80
2023-02-11T12:43:13.622Z,11.20
2023-02-11T12:48:25.756Z,11.60
2023-02-11T12:53:31.254Z,11.70
2023-02-11T12:58:47.070Z,10.00
2023-02-11T13:04:02.393Z,8.90
2023-02-11T13:09:14.198Z,8.30
2023-02-11T13:14:41.113Z,8.40
2023-02-11T13:19:55.023Z,7.90
2023-02-11T13:25:35.121Z,6.10
2023-02-11T13:30:47.232Z,7.10
2023-02-11T13:36:17.268Z,6.30
2023-02-11T13:41:38.740Z,4.90
2023-02-11T13:47:08.098Z,4.50
2023-02-11T13:52:38.745Z,5.40
2023-02-11T13:57:42.694Z,4.80
2023-02-11T14:03:30.284Z,4.70
2023-02-11T14:08:58.187Z,4.20
2023-02-11T14:14:17.383Z,4.30
2023-02-11T14:19:44.346Z,4.60
2023-02-11T14:24:59.657Z,4.40
2023-02-11T14:30:39.924Z,4.30
2023-02-11T14:36:01.791Z,3.70
2023-02-11T14:41:14.877Z,3.70
2023-02-11T14:46:21.203Z,4.10
2023-02-11T14:51:38.918Z,4.30
2023-02-11T14:56:44.220Z,4.10
2023-02-11T15:01:59.921Z,5.20
2023-02-11T15:07:13.265Z,4.60
2023-02-11T15:12:29.483Z,3.10
2023-02-11T15:17:34.838Z,4.10
2023-02-11T15:22:38.573Z,3.90
2023-02-11T15:27:48.908Z,4.70
2023-02-11T15:32:59.307Z,3.90
2023-02-11T15:38:03.626Z,4.10
2023-02-11T15:43:09.841Z,4.60
2023-02-11T15:48:27.068Z,6.60
2023-02-11T15:53:40.713Z,4.40
2023-02-11T15:58:47.602Z,5.60
2023-02-11T16:09:17.346Z,5.60
2023-02-11T16:14:39.758Z,6.60
2023-02-11T16:19:48.053Z,5.90
2023-02-11T16:24:54.700Z,6.60
2023-02-11T16:29:58.862Z,7.80
2023-02-11T16:35:02.061Z,4.90
2023-02-11T16:40:05.867Z,4.70
2023-02-11T16:45:09.231Z,4.00
2023-02-11T16:50:23.417Z,3.60
2023-02-11T16:55:29.252Z,4.60
2023-02-11T17:00:32.511Z,5.20
2023-02-11T17:05:53.156Z,3.70
2023-02-11T17:10:58.479Z,3.50
2023-02-11T17:16:05.678Z,3.30
2023-02-11T17:21:09.174Z,3.00
2023-02-11T17:26:12.743Z,5.00
2023-02-11T17:31:17.308Z,4.20
2023-02-11T17:36:22.576Z,3.90
2023-02-11T17:41:26.185Z,2.70
2023-02-11T17:46:29.113Z,2.10
2023-02-11T17:51:36.859Z,2.10
2023-02-11T17:56:41.900Z,1.80
2023-02-11T18:01:47.020Z,2.40
2023-02-11T18:06:51.988Z,2.80
2023-02-11T18:22:06.735Z,2.20
2023-02-11T18:27:10.152Z,2.70
2023-02-11T18:32:15.363Z,2.20
2023-02-11T18:37:18.182Z,2.20
2023-02-11T18:42:22.805Z,3.30
2023-02-11T18:47:26.277Z,2.70
2023-02-11T18:52:29.248Z,2.80
2023-02-11T18:57:32.380Z,2.80
2023-02-11T19:02:35.494Z,1.50
2023-02-11T19:07:38.425Z,2.40
2023-02-11T19:12:42.333Z,1.80
2023-02-11T19:17:45.221Z,2.40
2023-02-11T19:22:48.698Z,3.70
2023-02-11T19:27:51.661Z,2.80
2023-02-11T19:32:57.773Z,3.20
2023-02-11T19:38:01.087Z,3.20
2023-02-11T19:43:03.986Z,2.70
2023-02-11T19:48:07.129Z,1.70
2023-02-11T19:53:09.945Z,2.00
2023-02-11T19:58:14.601Z,2.00
2023-02-11T20:03:17.783Z,2.80
2023-02-11T20:08:21.627Z,3.50
2023-02-11T20:13:26.549Z,3.50
2023-02-11T20:18:34.085Z,4.20
2023-02-11T20:23:38.470Z,2.60
2023-02-11T20:28:42.116Z,2.40
2023-02-11T20:33:46.498Z,3.00
2023-02-11T20:38:51.040Z,4.50
2023-02-11T20:43:55.990Z,3.60
2023-02-11T20:49:01.160Z,4.40
2023-02-11T20:54:06.174Z,2.90
2023-02-11T20:59:09.253Z,4.00
2023-02-11T21:04:15.567Z,4.60
2023-02-11T21:09:23.899Z,4.70
2023-02-11T21:14:31.153Z,3.60
2023-02-11T21:19:41.674Z,2.90
2023-02-11T21:24:45.837Z,3.10
2023-02-11T21:29:54.149Z,3.70
2023-02-11T21:34:59.087Z,2.50
2023-02-11T21:40:03.594Z,1.90
2023-02-11T21:45:07.186Z,2.20
2023-02-11T21:50:12.949Z,2.50
2023-02-11T21:55:16.580Z,2.70
2023-02-11T22:00:19.621Z,2.40
2023-02-11T22:05:22.740Z,2.80
2023-02-11T22:10:25.531Z,4.40
2023-02-11T22:15:28.300Z,5.60
2023-02-11T22:20:31.103Z,3.30
2023-02-11T22:25:33.870Z,2.70
2023-02-11T22:30:36.708Z,2.10
2023-02-11T22:35:39.638Z,2.00
2023-02-11T22:40:44.088Z,2.30
2023-02-11T22:45:46.938Z,2.00
2023-02-11T22:50:49.820Z,1.80
2023-02-11T22:55:52.968Z,2.90
2023-02-11T23:00:55.865Z,2.50
2023-02-11T23:05:59.959Z,2.20
2023-02-11T23:11:05.317Z,2.30
2023-02-11T23:16:12.359Z,1.70
2023-02-11T23:26:19.819Z,1.40
2023-02-11T23:31:29.714Z,1.00
2023-02-11T23:36:32.913Z,0.90
2023-02-11T23:41:35.736Z,1.10
2023-02-11T23:46:38.649Z,1.30
2023-02-11T23:51:41.497Z,1.50
2023-02-11T23:56:44.685Z,1.00
